createdAt,value
2022-12-15T00:00:35.351Z,0.00
2022-12-15T00:01:35.306Z,0.00
2022-12-15T00:02:35.469Z,0.00
2022-12-15T00:03:35.926Z,0.00
2022-12-15T00:04:35.201Z,0.00
2022-12-15T00:05:35.199Z,0.00
2022-12-15T00:06:35.209Z,0.00
2022-12-15T00:07:35.186Z,0.00
2022-12-15T00:08:35.160Z,0.00
2022-12-15T00:09:35.195Z,0.00
2022-12-15T00:10:35.130Z,0.00
2022-12-15T00:11:35.146Z,0.00
2022-12-15T00:12:35.118Z,0.00
2022-12-15T00:13:35.309Z,0.00
2022-12-15T00:14:35.105Z,0.00
2022-12-15T00:15:35.181Z,0.00
2022-12-15T00:16:35.159Z,0.00
2022-12-15T00:17:35.141Z,0.00
2022-12-15T00:18:35.055Z,0.00
2022-12-15T00:19:35.049Z,0.00
2022-12-15T00:20:35.116Z,0.00
2022-12-15T00:21:35.042Z,0.00
2022-12-15T00:22:35.007Z,0.00
2022-12-15T00:23:35.003Z,0.00
2022-12-15T00:24:35.005Z,0.00
2022-12-15T00:25:35.038Z,0.00
2022-12-15T00:26:34.995Z,0.00
2022-12-15T00:27:34.980Z,0.00
2022-12-15T00:28:34.934Z,0.00
2022-12-15T00:29:34.956Z,0.00
2022-12-15T00:30:34.919Z,0.00
2022-12-15T00:31:34.970Z,0.00
2022-12-15T00:32:34.907Z,0.00
2022-12-15T00:33:35.070Z,0.00
2022-12-15T00:34:34.900Z,0.00
2022-12-15T00:35:34.888Z,0.00
2022-12-15T00:36:34.885Z,0.00
2022-12-15T00:37:34.855Z,0.00
2022-12-15T00:38:34.877Z,0.00
2022-12-15T00:39:34.834Z,0.00
2022-12-15T00:40:34.900Z,0.00
2022-12-15T00:41:34.812Z,0.00
2022-12-15T00:42:34.825Z,0.00
2022-12-15T00:43:35.330Z,0.00
2022-12-15T00:44:34.809Z,0.00
2022-12-15T00:45:34.775Z,0.00
2022-12-15T00:46:34.825Z,0.00
2022-12-15T00:47:34.750Z,0.00
2022-12-15T00:48:34.766Z,0.00
2022-12-15T00:49:34.746Z,0.00
2022-12-15T00:50:34.760Z,0.00
2022-12-15T00:51:34.871Z,0.00
2022-12-15T00:52:34.734Z,0.00
2022-12-15T00:53:34.702Z,0.00
2022-12-15T00:54:34.701Z,0.00
2022-12-15T00:55:34.675Z,0.00
2022-12-15T00:56:34.692Z,0.00
2022-12-15T00:57:34.664Z,0.00
2022-12-15T00:58:34.663Z,0.00
2022-12-15T00:59:34.637Z,0.00
2022-12-15T01:00:34.638Z,0.00
2022-12-15T01:01:34.707Z,0.00
2022-12-15T01:02:34.768Z,0.00
2022-12-15T01:03:35.263Z,0.00
2022-12-15T01:04:34.598Z,0.00
2022-12-15T01:05:34.581Z,0.00
2022-12-15T01:06:34.587Z,0.00
2022-12-15T01:07:34.565Z,0.00
2022-12-15T01:08:34.565Z,0.00
2022-12-15T01:09:34.528Z,0.00
2022-12-15T01:10:34.542Z,0.00
2022-12-15T01:11:34.521Z,0.00
2022-12-15T01:12:34.516Z,0.00
2022-12-15T01:13:34.579Z,0.00
2022-12-15T01:14:34.502Z,0.00
2022-12-15T01:15:34.502Z,0.00
2022-12-15T01:16:34.516Z,0.00
2022-12-15T01:17:34.487Z,0.00
2022-12-15T01:18:34.488Z,0.00
2022-12-15T01:19:34.450Z,0.00
2022-12-15T01:20:34.496Z,0.00
2022-12-15T01:21:34.402Z,0.00
2022-12-15T01:22:34.463Z,0.00
2022-12-15T01:23:34.639Z,0.00
2022-12-15T01:24:34.431Z,0.00
2022-12-15T01:25:34.403Z,0.00
2022-12-15T01:26:34.411Z,0.00
2022-12-15T01:27:34.361Z,0.00
2022-12-15T01:28:34.360Z,0.00
2022-12-15T01:29:34.347Z,0.00
2022-12-15T01:30:34.338Z,0.00
2022-12-15T01:31:34.393Z,0.00
2022-12-15T01:32:34.331Z,0.00
2022-12-15T01:33:34.438Z,0.00
2022-12-15T01:34:34.307Z,0.00
2022-12-15T01:35:34.271Z,0.00
2022-12-15T01:36:34.278Z,0.00
2022-12-15T01:37:34.255Z,0.00
2022-12-15T01:38:34.262Z,0.00
2022-12-15T01:39:34.233Z,0.00
2022-12-15T01:40:34.248Z,0.00
2022-12-15T01:41:34.214Z,0.00
2022-12-15T01:42:34.211Z,0.00
2022-12-15T01:43:34.808Z,0.00
2022-12-15T01:44:34.231Z,0.00
2022-12-15T01:45:34.186Z,0.00
2022-12-15T01:46:34.268Z,0.00
2022-12-15T01:47:34.165Z,0.00
2022-12-15T01:48:34.186Z,0.00
2022-12-15T01:49:34.192Z,0.00
2022-12-15T01:50:34.120Z,0.00
2022-12-15T01:51:34.139Z,0.00
2022-12-15T01:52:34.142Z,0.00
2022-12-15T01:53:34.450Z,0.00
2022-12-15T01:54:34.112Z,0.00
2022-12-15T01:55:34.098Z,0.00
2022-12-15T01:56:37.617Z,0.00
2022-12-15T01:57:34.076Z,0.00
2022-12-15T01:58:34.056Z,0.00
2022-12-15T01:59:34.035Z,0.00
2022-12-15T02:00:34.107Z,0.00
2022-12-15T02:01:34.236Z,0.00
2022-12-15T02:02:39.798Z,0.00
2022-12-15T02:03:35.590Z,0.00
2022-12-15T02:04:34.021Z,0.00
2022-12-15T02:05:33.971Z,0.00
2022-12-15T02:06:33.974Z,0.00
2022-12-15T02:07:33.960Z,0.00
2022-12-15T02:08:33.985Z,0.00
2022-12-15T02:09:33.933Z,0.00
2022-12-15T02:10:33.932Z,0.00
2022-12-15T02:11:33.926Z,0.00
2022-12-15T02:12:33.911Z,0.00
2022-12-15T02:13:34.231Z,0.00
2022-12-15T02:14:33.899Z,0.00
2022-12-15T02:15:33.897Z,0.00
2022-12-15T02:16:33.965Z,0.00
2022-12-15T02:17:33.873Z,0.00
2022-12-15T02:18:33.871Z,0.00
2022-12-15T02:19:33.852Z,0.00
2022-12-15T02:20:33.821Z,0.00
2022-12-15T02:21:33.806Z,0.00
2022-12-15T02:22:33.821Z,0.00
2022-12-15T02:23:34.203Z,0.00
2022-12-15T02:24:33.854Z,0.00
2022-12-15T02:25:33.754Z,0.00
2022-12-15T02:26:33.777Z,0.00
2022-12-15T02:27:33.771Z,0.00
2022-12-15T02:28:33.758Z,0.00
2022-12-15T02:29:33.727Z,0.00
2022-12-15T02:30:33.735Z,0.00
2022-12-15T02:31:33.759Z,0.00
2022-12-15T02:32:33.709Z,0.00
2022-12-15T02:33:33.992Z,0.00
2022-12-15T02:34:33.702Z,0.00
2022-12-15T02:35:33.683Z,0.00
2022-12-15T02:36:33.680Z,0.00
2022-12-15T02:37:33.653Z,0.00
2022-12-15T02:38:33.670Z,0.00
2022-12-15T02:39:33.641Z,0.00
2022-12-15T02:40:33.625Z,0.00
2022-12-15T02:41:33.620Z,0.00
2022-12-15T02:42:33.621Z,0.00
2022-12-15T02:43:34.005Z,0.00
2022-12-15T02:44:33.591Z,0.00
2022-12-15T02:45:33.649Z,0.00
2022-12-15T02:46:33.578Z,0.00
2022-12-15T02:47:33.592Z,0.00
2022-12-15T02:48:33.563Z,0.00
2022-12-15T02:49:33.541Z,0.00
2022-12-15T02:50:33.545Z,0.00
2022-12-15T02:51:33.522Z,0.00
2022-12-15T02:52:33.533Z,0.00
2022-12-15T02:53:33.969Z,0.00
2022-12-15T02:54:33.506Z,0.00
2022-12-15T02:55:33.818Z,0.00
2022-12-15T02:56:33.486Z,0.00
2022-12-15T02:57:33.461Z,0.00
2022-12-15T02:58:33.454Z,0.00
2022-12-15T02:59:33.436Z,0.00
2022-12-15T03:00:33.421Z,0.00
2022-12-15T03:01:33.632Z,0.00
2022-12-15T03:02:33.564Z,0.00
2022-12-15T03:03:33.849Z,0.00
2022-12-15T03:04:33.392Z,0.00
2022-12-15T03:05:33.371Z,0.00
2022-12-15T03:06:33.388Z,0.00
2022-12-15T03:07:33.343Z,0.00
2022-12-15T03:08:33.362Z,0.00
2022-12-15T03:09:33.333Z,0.00
2022-12-15T03:10:33.328Z,0.00
2022-12-15T03:11:33.313Z,0.00
2022-12-15T03:12:33.317Z,0.00
2022-12-15T03:13:33.682Z,0.00
2022-12-15T03:14:33.310Z,0.00
2022-12-15T03:15:35.453Z,0.00
2022-12-15T03:16:33.310Z,0.00
2022-12-15T03:17:33.264Z,0.00
2022-12-15T03:18:33.268Z,0.00
2022-12-15T03:19:33.240Z,0.00
2022-12-15T03:20:33.225Z,0.00
2022-12-15T03:21:33.214Z,0.00
2022-12-15T03:22:33.226Z,0.00
2022-12-15T03:23:33.670Z,0.00
2022-12-15T03:24:33.185Z,0.00
2022-12-15T03:25:33.173Z,0.00
2022-12-15T03:26:33.238Z,0.00
2022-12-15T03:27:33.147Z,0.00
2022-12-15T03:28:33.157Z,0.00
2022-12-15T03:29:33.137Z,0.00
2022-12-15T03:30:33.142Z,0.00
2022-12-15T03:31:33.188Z,0.00
2022-12-15T03:32:33.112Z,0.00
2022-12-15T03:33:33.807Z,0.00
2022-12-15T03:34:33.123Z,0.00
2022-12-15T03:35:33.065Z,0.00
2022-12-15T03:36:33.112Z,0.00
2022-12-15T03:37:33.068Z,0.00
2022-12-15T03:38:33.067Z,0.00
2022-12-15T03:39:33.026Z,0.00
2022-12-15T03:40:33.052Z,0.00
2022-12-15T03:41:33.013Z,0.00
2022-12-15T03:42:33.015Z,0.00
2022-12-15T03:43:33.395Z,0.00
2022-12-15T03:44:32.991Z,0.00
2022-12-15T03:45:33.047Z,0.00
2022-12-15T03:46:32.986Z,0.00
2022-12-15T03:47:32.943Z,0.00
2022-12-15T03:48:32.977Z,0.00
2022-12-15T03:49:32.948Z,0.00
2022-12-15T03:50:32.947Z,0.00
2022-12-15T03:51:36.482Z,0.00
2022-12-15T03:52:32.914Z,0.00
2022-12-15T03:53:33.203Z,0.00
2022-12-15T03:54:32.891Z,0.00
2022-12-15T03:55:32.879Z,0.00
2022-12-15T03:56:32.880Z,0.00
2022-12-15T03:57:32.896Z,0.00
2022-12-15T03:58:32.871Z,0.00
2022-12-15T03:59:32.827Z,0.00
2022-12-15T04:00:32.867Z,0.00
2022-12-15T04:01:32.983Z,0.00
2022-12-15T04:02:33.009Z,0.00
2022-12-15T04:03:33.270Z,0.00
2022-12-15T04:04:32.782Z,0.00
2022-12-15T04:05:32.778Z,0.00
2022-12-15T04:06:32.762Z,0.00
2022-12-15T04:07:32.772Z,0.00
2022-12-15T04:08:32.755Z,0.00
2022-12-15T04:09:32.739Z,0.00
2022-12-15T04:10:34.603Z,0.00
2022-12-15T04:11:32.711Z,0.00
2022-12-15T04:12:32.717Z,0.00
2022-12-15T04:13:33.062Z,0.00
2022-12-15T04:14:32.692Z,0.00
2022-12-15T04:15:32.661Z,0.00
2022-12-15T04:16:32.765Z,0.00
2022-12-15T04:17:32.658Z,0.00
2022-12-15T04:18:32.682Z,0.00
2022-12-15T04:19:32.636Z,0.00
2022-12-15T04:20:32.632Z,0.00
2022-12-15T04:21:32.607Z,0.00
2022-12-15T04:22:32.613Z,0.00
2022-12-15T04:23:33.032Z,0.00
2022-12-15T04:24:32.587Z,0.00
2022-12-15T04:25:32.589Z,0.00
2022-12-15T04:26:32.579Z,0.00
2022-12-15T04:27:32.556Z,0.00
2022-12-15T04:28:32.629Z,0.00
2022-12-15T04:29:32.531Z,0.00
2022-12-15T04:30:32.538Z,0.00
2022-12-15T04:31:32.607Z,0.00
2022-12-15T04:32:32.516Z,0.00
2022-12-15T04:33:32.980Z,0.00
2022-12-15T04:34:32.490Z,0.00
2022-12-15T04:35:32.487Z,0.00
2022-12-15T04:36:32.462Z,0.00
2022-12-15T04:37:32.456Z,0.00
2022-12-15T04:38:32.454Z,0.00
2022-12-15T04:39:32.435Z,0.00
2022-12-15T04:40:32.440Z,0.00
2022-12-15T04:41:32.406Z,0.00
2022-12-15T04:42:32.418Z,0.00
2022-12-15T04:43:32.957Z,0.00
2022-12-15T04:44:32.398Z,0.00
2022-12-15T04:45:32.397Z,0.00
2022-12-15T04:46:32.471Z,0.00
2022-12-15T04:47:32.377Z,0.00
2022-12-15T04:48:32.372Z,0.00
2022-12-15T04:49:32.366Z,0.00
2022-12-15T04:50:32.353Z,0.00
2022-12-15T04:51:32.319Z,0.00
2022-12-15T04:52:32.300Z,0.00
2022-12-15T04:53:32.935Z,0.00
2022-12-15T04:54:32.277Z,0.00
2022-12-15T04:55:32.290Z,0.00
2022-12-15T04:56:32.249Z,0.00
2022-12-15T04:57:32.261Z,0.00
2022-12-15T04:58:32.238Z,0.00
2022-12-15T04:59:32.348Z,0.00
2022-12-15T05:00:32.229Z,0.00
2022-12-15T05:01:32.308Z,0.00
2022-12-15T05:02:32.357Z,0.00
2022-12-15T05:03:32.623Z,0.00
2022-12-15T05:04:32.219Z,0.00
2022-12-15T05:05:32.203Z,0.00
2022-12-15T05:06:32.154Z,0.00
2022-12-15T05:07:32.155Z,0.00
2022-12-15T05:08:32.155Z,0.00
2022-12-15T05:09:32.136Z,0.00
2022-12-15T05:10:32.137Z,0.00
2022-12-15T05:11:32.137Z,0.00
2022-12-15T05:12:32.108Z,0.00
2022-12-15T05:13:32.443Z,0.00
2022-12-15T05:14:32.063Z,0.00
2022-12-15T05:15:32.159Z,0.00
2022-12-15T05:16:32.061Z,0.00
2022-12-15T05:17:34.582Z,0.00
2022-12-15T05:18:32.049Z,0.00
2022-12-15T05:19:32.047Z,0.00
2022-12-15T05:20:32.033Z,0.00
2022-12-15T05:21:32.028Z,0.00
2022-12-15T05:22:31.989Z,0.00
2022-12-15T05:23:32.293Z,0.00
2022-12-15T05:24:31.954Z,0.00
2022-12-15T05:25:31.988Z,0.00
2022-12-15T05:26:31.960Z,0.00
2022-12-15T05:27:31.965Z,0.00
2022-12-15T05:28:31.936Z,0.00
2022-12-15T05:29:31.940Z,0.00
2022-12-15T05:30:31.951Z,0.00
2022-12-15T05:31:32.032Z,0.00
2022-12-15T05:32:31.902Z,0.00
2022-12-15T05:33:32.215Z,0.00
2022-12-15T05:34:31.876Z,0.00
2022-12-15T05:35:31.900Z,0.00
2022-12-15T05:36:31.877Z,0.00
2022-12-15T05:37:31.862Z,0.00
2022-12-15T05:38:31.842Z,0.00
2022-12-15T05:39:31.864Z,0.00
2022-12-15T05:40:31.828Z,0.00
2022-12-15T05:41:31.822Z,0.00
2022-12-15T05:42:31.794Z,0.00
2022-12-15T05:43:32.211Z,0.00
2022-12-15T05:44:31.786Z,0.00
2022-12-15T05:45:31.784Z,0.00
2022-12-15T05:46:31.872Z,0.00
2022-12-15T05:47:31.795Z,0.00
2022-12-15T05:48:31.751Z,0.00
2022-12-15T05:49:31.735Z,0.00
2022-12-15T05:50:31.718Z,0.00
2022-12-15T05:51:31.781Z,0.00
2022-12-15T05:52:31.698Z,0.00
2022-12-15T05:53:32.071Z,0.00
2022-12-15T05:54:31.701Z,0.00
2022-12-15T05:55:31.688Z,0.00
2022-12-15T05:56:31.662Z,0.00
2022-12-15T05:57:31.681Z,0.00
2022-12-15T05:58:31.644Z,0.00
2022-12-15T05:59:31.627Z,0.00
2022-12-15T06:00:31.652Z,0.00
2022-12-15T06:01:32.005Z,0.00
2022-12-15T06:02:31.630Z,0.00
2022-12-15T06:03:31.928Z,0.00
2022-12-15T06:04:31.669Z,0.00
2022-12-15T06:05:31.589Z,0.00
2022-12-15T06:06:31.565Z,0.00
2022-12-15T06:07:31.555Z,0.00
2022-12-15T06:08:31.561Z,0.00
2022-12-15T06:09:31.540Z,0.00
2022-12-15T06:10:31.518Z,0.00
2022-12-15T06:11:31.527Z,0.00
2022-12-15T06:12:31.509Z,0.00
2022-12-15T06:13:31.868Z,0.00
2022-12-15T06:14:31.469Z,0.00
2022-12-15T06:15:31.495Z,0.00
2022-12-15T06:16:31.495Z,0.00
2022-12-15T06:17:31.460Z,0.00
2022-12-15T06:18:31.462Z,0.00
2022-12-15T06:19:31.434Z,0.00
2022-12-15T06:20:31.421Z,0.00
2022-12-15T06:21:31.437Z,0.00
2022-12-15T06:22:31.394Z,0.00
2022-12-15T06:23:31.710Z,0.00
2022-12-15T06:24:31.397Z,0.00
2022-12-15T06:25:31.382Z,0.00
2022-12-15T06:26:31.366Z,0.00
2022-12-15T06:27:31.374Z,0.00
2022-12-15T06:28:31.350Z,0.00
2022-12-15T06:29:31.340Z,0.00
2022-12-15T06:30:31.343Z,0.00
2022-12-15T06:31:31.346Z,0.00
2022-12-15T06:32:31.341Z,0.00
2022-12-15T06:33:31.697Z,0.00
2022-12-15T06:34:31.276Z,0.00
2022-12-15T06:35:31.287Z,0.00
2022-12-15T06:36:31.318Z,0.00
2022-12-15T06:37:31.260Z,0.00
2022-12-15T06:38:31.262Z,0.00
2022-12-15T06:39:31.241Z,0.00
2022-12-15T06:40:37.721Z,0.00
2022-12-15T06:41:32.258Z,0.00
2022-12-15T06:42:31.208Z,0.00
2022-12-15T06:43:31.662Z,0.00
2022-12-15T06:44:31.214Z,0.00
2022-12-15T06:45:31.185Z,0.00
2022-12-15T06:46:31.272Z,0.00
2022-12-15T06:47:31.164Z,0.00
2022-12-15T06:48:31.135Z,0.00
2022-12-15T06:49:31.142Z,0.00
2022-12-15T06:50:31.095Z,0.00
2022-12-15T06:51:31.126Z,0.00
2022-12-15T06:52:31.806Z,0.00
2022-12-15T06:53:31.622Z,0.00
2022-12-15T06:54:31.080Z,0.00
2022-12-15T06:55:31.085Z,0.00
2022-12-15T06:56:33.960Z,0.00
2022-12-15T06:57:31.063Z,0.00
2022-12-15T06:58:31.034Z,0.00
2022-12-15T06:59:31.045Z,0.00
2022-12-15T07:00:31.021Z,0.00
2022-12-15T07:01:31.219Z,0.00
2022-12-15T07:02:31.233Z,0.00
2022-12-15T07:03:32.010Z,0.00
2022-12-15T07:04:31.024Z,0.00
2022-12-15T07:05:30.986Z,0.00
2022-12-15T07:06:30.964Z,0.00
2022-12-15T07:07:30.965Z,0.00
2022-12-15T07:08:35.322Z,0.00
2022-12-15T07:09:31.941Z,0.00
2022-12-15T07:10:30.925Z,0.00
2022-12-15T07:11:30.925Z,0.00
2022-12-15T07:12:30.926Z,0.00
2022-12-15T07:13:31.289Z,0.00
2022-12-15T07:14:30.881Z,5.62
2022-12-15T07:15:30.869Z,5.62
2022-12-15T07:16:30.907Z,5.62
2022-12-15T07:17:30.857Z,5.62
2022-12-15T07:18:30.844Z,5.62
2022-12-15T07:19:30.849Z,5.62
2022-12-15T07:20:30.834Z,5.62
2022-12-15T07:21:30.935Z,5.62
2022-12-15T07:22:30.861Z,11.25
2022-12-15T07:23:53.216Z,11.25
2022-12-15T07:24:31.796Z,11.25
2022-12-15T07:25:30.774Z,11.25
2022-12-15T07:26:30.772Z,11.25
2022-12-15T07:27:30.786Z,16.88
2022-12-15T07:28:31.178Z,16.88
2022-12-15T07:29:30.769Z,16.88
2022-12-15T07:30:36.796Z,16.88
2022-12-15T07:31:31.808Z,22.50
2022-12-15T07:32:30.706Z,22.50
2022-12-15T07:33:31.116Z,22.50
2022-12-15T07:34:30.781Z,28.12
2022-12-15T07:35:30.682Z,28.12
2022-12-15T07:36:30.669Z,28.12
2022-12-15T07:37:30.685Z,33.75
2022-12-15T07:38:30.655Z,33.75
2022-12-15T07:39:30.659Z,33.75
2022-12-15T07:40:30.613Z,39.38
2022-12-15T07:41:30.615Z,39.38
2022-12-15T07:42:30.606Z,39.38
2022-12-15T07:43:30.989Z,45.00
2022-12-15T07:44:30.580Z,45.00
2022-12-15T07:45:30.629Z,45.00
2022-12-15T07:46:30.730Z,50.62
2022-12-15T07:47:30.584Z,50.62
2022-12-15T07:48:30.558Z,56.25
2022-12-15T07:49:30.548Z,56.25
2022-12-15T07:50:30.508Z,61.88
2022-12-15T07:51:30.496Z,61.88
2022-12-15T07:52:30.503Z,61.88
2022-12-15T07:53:30.967Z,67.50
2022-12-15T07:54:30.483Z,67.50
2022-12-15T07:55:57.225Z,73.12
2022-12-15T07:56:37.364Z,73.12
2022-12-15T07:57:31.476Z,78.75
2022-12-15T07:58:30.461Z,78.75
2022-12-15T07:59:30.451Z,78.75
2022-12-15T08:00:30.426Z,84.38
2022-12-15T08:01:30.503Z,84.38
2022-12-15T08:02:30.724Z,90.00
2022-12-15T08:03:30.910Z,90.00
2022-12-15T08:04:30.378Z,90.00
2022-12-15T08:05:30.680Z,95.62
2022-12-15T08:06:30.359Z,95.62
2022-12-15T08:07:30.359Z,101.25
2022-12-15T08:08:30.812Z,101.25
2022-12-15T08:09:30.321Z,106.88
2022-12-15T08:10:30.310Z,106.88
2022-12-15T08:11:30.308Z,106.88
2022-12-15T08:12:30.306Z,112.50
2022-12-15T08:14:01.520Z,112.50
2022-12-15T08:14:31.277Z,118.12
2022-12-15T08:15:30.280Z,118.12
2022-12-15T08:16:30.359Z,123.75
2022-12-15T08:17:30.281Z,123.75
2022-12-15T08:18:30.237Z,129.38
2022-12-15T08:19:30.240Z,129.38
2022-12-15T08:20:30.225Z,129.38
2022-12-15T08:21:30.218Z,129.38
2022-12-15T08:22:30.199Z,135.00
2022-12-15T08:23:30.590Z,135.00
2022-12-15T08:24:30.183Z,135.00
2022-12-15T08:25:30.172Z,140.62
2022-12-15T08:26:31.243Z,140.62
2022-12-15T08:27:30.172Z,146.25
2022-12-15T08:28:30.128Z,146.25
2022-12-15T08:29:50.834Z,151.88
2022-12-15T08:30:31.111Z,157.50
2022-12-15T08:31:30.171Z,157.50
2022-12-15T08:32:30.115Z,163.12
2022-12-15T08:33:30.569Z,163.12
2022-12-15T08:34:30.070Z,168.75
2022-12-15T08:35:55.196Z,168.75
2022-12-15T08:36:31.086Z,174.38
2022-12-15T08:37:30.054Z,180.00
2022-12-15T08:38:30.038Z,180.00
2022-12-15T08:39:30.052Z,185.62
2022-12-15T08:40:30.022Z,191.25
2022-12-15T08:41:30.028Z,191.25
2022-12-15T08:42:29.992Z,196.88
2022-12-15T08:43:30.455Z,196.88
2022-12-15T08:44:29.978Z,202.50
2022-12-15T08:45:30.050Z,202.50
2022-12-15T08:46:30.012Z,208.12
2022-12-15T08:47:29.958Z,208.12
2022-12-15T08:48:29.939Z,208.12
2022-12-15T08:49:29.964Z,208.12
2022-12-15T08:50:29.931Z,213.75
2022-12-15T08:51:29.927Z,213.75
2022-12-15T08:52:29.902Z,219.38
2022-12-15T08:53:31.640Z,219.38
2022-12-15T08:54:30.026Z,225.00
2022-12-15T08:55:29.868Z,225.00
2022-12-15T08:56:29.870Z,230.62
2022-12-15T08:57:29.876Z,236.25
2022-12-15T08:58:29.834Z,236.25
2022-12-15T08:59:29.827Z,236.25
2022-12-15T09:00:29.819Z,241.88
2022-12-15T09:01:29.943Z,241.88
2022-12-15T09:02:29.916Z,247.50
2022-12-15T09:03:30.202Z,247.50
2022-12-15T09:04:29.823Z,253.12
2022-12-15T09:05:29.912Z,253.12
2022-12-15T09:06:29.776Z,258.75
2022-12-15T09:07:29.911Z,258.75
2022-12-15T09:08:29.746Z,264.38
2022-12-15T09:09:29.727Z,270.00
2022-12-15T09:10:29.717Z,270.00
2022-12-15T09:11:29.713Z,275.62
2022-12-15T09:12:29.707Z,275.62
2022-12-15T09:13:30.309Z,281.25
2022-12-15T09:14:29.856Z,281.25
2022-12-15T09:15:59.802Z,281.25
2022-12-15T09:16:30.697Z,286.88
2022-12-15T09:17:29.697Z,286.88
2022-12-15T09:18:29.652Z,292.50
2022-12-15T09:19:29.640Z,292.50
2022-12-15T09:20:29.619Z,298.12
2022-12-15T09:21:29.619Z,298.12
2022-12-15T09:22:29.599Z,298.12
2022-12-15T09:23:29.997Z,298.12
2022-12-15T09:24:35.101Z,298.12
2022-12-15T09:25:30.549Z,303.75
2022-12-15T09:26:29.587Z,309.38
2022-12-15T09:27:29.548Z,309.38
2022-12-15T09:28:29.531Z,315.00
2022-12-15T09:29:29.527Z,315.00
2022-12-15T09:30:29.601Z,320.62
2022-12-15T09:31:29.608Z,320.62
2022-12-15T09:32:29.487Z,326.25
2022-12-15T09:33:29.865Z,326.25
2022-12-15T09:34:29.483Z,331.88
2022-12-15T09:35:29.456Z,337.50
2022-12-15T09:36:29.473Z,337.50
2022-12-15T09:37:29.447Z,337.50
2022-12-15T09:38:29.493Z,343.12
2022-12-15T09:39:29.408Z,343.12
2022-12-15T09:40:29.408Z,348.75
2022-12-15T09:41:29.393Z,348.75
2022-12-15T09:42:29.390Z,354.38
2022-12-15T09:43:41.426Z,354.38
2022-12-15T09:44:30.387Z,360.00
2022-12-15T09:45:29.343Z,365.62
2022-12-15T09:46:29.462Z,365.62
2022-12-15T09:47:29.338Z,365.62
2022-12-15T09:48:29.331Z,371.25
2022-12-15T09:49:29.304Z,382.50
2022-12-15T09:50:29.307Z,433.12
2022-12-15T09:51:29.281Z,427.50
2022-12-15T09:52:29.403Z,388.12
2022-12-15T09:53:54.260Z,483.75
2022-12-15T09:54:30.295Z,686.25
2022-12-15T09:55:29.261Z,838.12
2022-12-15T09:56:29.233Z,1102.50
2022-12-15T09:57:29.238Z,1108.12
2022-12-15T09:58:29.239Z,1141.88
2022-12-15T09:59:29.204Z,1299.38
2022-12-15T10:00:29.197Z,1220.62
2022-12-15T10:01:29.271Z,1108.12
2022-12-15T10:02:33.198Z,1158.75
2022-12-15T10:03:29.640Z,1164.38
2022-12-15T10:04:29.226Z,1113.75
2022-12-15T10:05:49.973Z,1113.75
2022-12-15T10:06:33.350Z,1001.25
2022-12-15T10:07:29.126Z,1035.00
2022-12-15T10:08:38.084Z,1074.38
2022-12-15T10:09:29.108Z,1029.38
2022-12-15T10:10:29.090Z,1018.12
2022-12-15T10:11:29.805Z,1046.25
2022-12-15T10:12:29.085Z,1006.88
2022-12-15T10:13:29.560Z,939.38
2022-12-15T10:14:29.097Z,967.50
2022-12-15T10:15:29.085Z,967.50
2022-12-15T10:16:29.035Z,1102.50
2022-12-15T10:17:29.019Z,1074.38
2022-12-15T10:18:29.012Z,1001.25
2022-12-15T10:19:28.997Z,1023.75
2022-12-15T10:20:28.994Z,1018.12
2022-12-15T10:21:28.969Z,995.62
2022-12-15T10:22:29.016Z,1057.50
2022-12-15T10:23:29.566Z,1091.25
2022-12-15T10:25:08.009Z,1091.25
2022-12-15T10:25:30.848Z,1051.88
2022-12-15T10:26:28.936Z,1018.12
2022-12-15T10:27:28.943Z,1074.38
2022-12-15T10:28:28.902Z,1215.00
2022-12-15T10:29:28.905Z,1305.00
2022-12-15T10:30:29.135Z,1243.12
2022-12-15T10:31:28.950Z,1153.12
2022-12-15T10:32:28.854Z,1164.38
2022-12-15T10:33:29.262Z,1299.38
2022-12-15T10:34:28.913Z,1316.25
2022-12-15T10:35:28.865Z,1237.50
2022-12-15T10:36:28.818Z,1417.50
2022-12-15T10:37:28.808Z,1524.38
2022-12-15T10:38:28.828Z,1473.75
2022-12-15T10:39:28.879Z,1501.88
2022-12-15T10:40:28.787Z,1833.75
2022-12-15T10:41:28.774Z,2143.12
2022-12-15T10:42:28.762Z,2311.88
2022-12-15T10:43:29.247Z,2148.75
2022-12-15T10:44:32.340Z,1603.12
2022-12-15T10:45:28.757Z,1220.62
2022-12-15T10:46:28.776Z,1057.50
2022-12-15T10:47:28.722Z,995.62
2022-12-15T10:48:28.695Z,984.38
2022-12-15T10:49:28.663Z,961.88
2022-12-15T10:50:28.674Z,945.00
2022-12-15T10:51:28.656Z,922.50
2022-12-15T10:52:28.651Z,894.38
2022-12-15T10:53:29.046Z,894.38
2022-12-15T10:54:28.627Z,900.00
2022-12-15T10:55:28.609Z,911.25
2022-12-15T10:56:33.133Z,916.88
2022-12-15T10:57:29.578Z,911.25
2022-12-15T10:58:28.600Z,905.62
2022-12-15T10:59:28.580Z,883.12
2022-12-15T11:00:28.575Z,849.38
2022-12-15T11:01:28.752Z,843.75
2022-12-15T11:02:28.749Z,838.12
2022-12-15T11:03:28.998Z,843.75
2022-12-15T11:04:28.624Z,849.38
2022-12-15T11:05:28.555Z,871.88
2022-12-15T11:06:28.516Z,888.75
2022-12-15T11:07:28.488Z,922.50
2022-12-15T11:08:28.488Z,1063.12
2022-12-15T11:09:28.481Z,1485.00
2022-12-15T11:10:28.766Z,1816.88
2022-12-15T11:11:28.457Z,1856.25
2022-12-15T11:12:28.441Z,1923.75
2022-12-15T11:13:33.113Z,1963.12
2022-12-15T11:14:29.444Z,1974.38
2022-12-15T11:15:28.459Z,1929.38
2022-12-15T11:16:28.430Z,1935.00
2022-12-15T11:17:28.389Z,1968.75
2022-12-15T11:18:28.379Z,2030.62
2022-12-15T11:19:28.382Z,2030.62
2022-12-15T11:20:28.348Z,1996.88
2022-12-15T11:21:28.340Z,2002.50
2022-12-15T11:22:28.333Z,2058.75
2022-12-15T11:23:28.721Z,2070.00
2022-12-15T11:24:28.320Z,2137.50
2022-12-15T11:25:28.283Z,2120.62
2022-12-15T11:26:28.286Z,2109.38
2022-12-15T11:27:28.284Z,2193.75
2022-12-15T11:28:28.281Z,2182.50
2022-12-15T11:29:28.260Z,2205.00
2022-12-15T11:30:28.267Z,2255.62
2022-12-15T11:31:28.220Z,2238.75
2022-12-15T11:32:28.227Z,2323.12
2022-12-15T11:33:28.750Z,2300.62
2022-12-15T11:34:28.208Z,2165.62
2022-12-15T11:35:28.183Z,2143.12
2022-12-15T11:36:28.182Z,2199.38
2022-12-15T11:37:32.438Z,2199.38
2022-12-15T11:38:29.189Z,2154.38
2022-12-15T11:39:28.133Z,2193.75
2022-12-15T11:40:28.135Z,2227.50
2022-12-15T11:41:28.172Z,2070.00
2022-12-15T11:42:28.121Z,1839.38
2022-12-15T11:43:28.237Z,1755.00
2022-12-15T11:44:28.102Z,1923.75
2022-12-15T11:45:28.062Z,2193.75
2022-12-15T11:46:28.070Z,2278.12
2022-12-15T11:47:28.043Z,2362.50
2022-12-15T11:48:28.069Z,2368.12
2022-12-15T11:49:28.029Z,2401.88
2022-12-15T11:50:28.028Z,2413.12
2022-12-15T11:51:28.003Z,2469.38
2022-12-15T11:52:28.002Z,2503.12
2022-12-15T11:53:27.989Z,2424.38
2022-12-15T11:54:27.989Z,2430.00
2022-12-15T11:55:33.209Z,2458.12
2022-12-15T11:56:28.969Z,2390.62
2022-12-15T11:57:27.978Z,2401.88
2022-12-15T11:58:28.057Z,2407.50
2022-12-15T11:59:27.921Z,2368.12
2022-12-15T12:00:28.582Z,2379.38
2022-12-15T12:01:27.977Z,2418.75
2022-12-15T12:02:28.041Z,2435.62
2022-12-15T12:03:27.891Z,2413.12
2022-12-15T12:04:27.897Z,2446.88
2022-12-15T12:05:27.878Z,2413.12
2022-12-15T12:06:27.891Z,2435.62
2022-12-15T12:07:27.835Z,2469.38
2022-12-15T12:08:27.943Z,2508.75
2022-12-15T12:09:27.805Z,2446.88
2022-12-15T12:10:27.827Z,2497.50
2022-12-15T12:11:28.836Z,2508.75
2022-12-15T12:12:28.090Z,2452.50
2022-12-15T12:13:27.772Z,2469.38
2022-12-15T12:14:27.771Z,2491.88
2022-12-15T12:15:27.768Z,2587.50
2022-12-15T12:16:27.757Z,2542.50
2022-12-15T12:17:27.726Z,2430.00
2022-12-15T12:18:27.895Z,2435.62
2022-12-15T12:19:27.800Z,2458.12
2022-12-15T12:20:27.697Z,2491.88
2022-12-15T12:21:27.682Z,2486.25
2022-12-15T12:22:27.694Z,2508.75
2022-12-15T12:23:27.663Z,2486.25
2022-12-15T12:24:27.676Z,2508.75
2022-12-15T12:25:27.648Z,2514.38
2022-12-15T12:26:27.707Z,2480.62
2022-12-15T12:27:27.622Z,2469.38
2022-12-15T12:28:27.636Z,2413.12
2022-12-15T12:29:27.591Z,2413.12
2022-12-15T12:30:27.603Z,2469.38
2022-12-15T12:31:27.589Z,2514.38
2022-12-15T12:32:27.582Z,2503.12
2022-12-15T12:33:27.556Z,2491.88
2022-12-15T12:34:27.552Z,2463.75
2022-12-15T12:35:31.498Z,2531.25
2022-12-15T12:36:28.540Z,2559.38
2022-12-15T12:37:27.520Z,2565.00
2022-12-15T12:38:27.596Z,2548.12
2022-12-15T12:39:27.508Z,2503.12
2022-12-15T12:40:27.492Z,2525.62
2022-12-15T12:41:27.474Z,2525.62
2022-12-15T12:42:27.475Z,2463.75
2022-12-15T12:43:27.488Z,2486.25
2022-12-15T12:44:27.473Z,2486.25
2022-12-15T12:45:27.428Z,2491.88
2022-12-15T12:46:27.440Z,2480.62
2022-12-15T12:47:27.408Z,2480.62
2022-12-15T12:48:27.424Z,2486.25
2022-12-15T12:49:27.391Z,2469.38
2022-12-15T12:50:27.388Z,2548.12
2022-12-15T12:51:27.363Z,2548.12
2022-12-15T12:52:27.375Z,2497.50